createdAt,value
2023-04-17T00:01:36.216Z,97399.84
2023-04-17T00:04:21.371Z,97400.41
2023-04-17T00:07:09.725Z,97398.44
2023-04-17T00:09:55.157Z,97380.78
2023-04-17T00:12:40.530Z,97369.88
2023-04-17T00:15:25.637Z,97369.66
2023-04-17T00:18:11.141Z,97364.28
2023-04-17T00:20:56.291Z,97351.78
2023-04-17T00:23:41.626Z,97351.97
2023-04-17T00:26:27.069Z,97354.94
2023-04-17T00:29:12.648Z,97348.34
2023-04-17T00:31:58.454Z,97346.50
2023-04-17T00:34:43.726Z,97349.19
2023-04-17T00:37:29.127Z,97347.59
2023-04-17T00:40:14.421Z,97356.28
2023-04-17T00:42:59.840Z,97346.47
2023-04-17T00:45:45.150Z,97334.84
2023-04-17T00:48:30.193Z,97336.97
2023-04-17T00:51:15.649Z,97336.41
2023-04-17T00:54:00.735Z,97329.41
2023-04-17T00:56:46.081Z,97332.41
2023-04-17T00:59:31.327Z,97339.16
2023-04-17T01:02:16.992Z,97334.56
2023-04-17T01:05:02.355Z,97338.34
2023-04-17T01:07:47.749Z,97330.75
2023-04-17T01:10:33.193Z,97324.75
2023-04-17T01:13:18.528Z,97333.97
2023-04-17T01:16:03.962Z,97342.19
2023-04-17T01:18:49.237Z,97334.56
2023-04-17T01:21:34.300Z,97332.66
2023-04-17T01:24:19.736Z,97333.69
2023-04-17T01:27:04.650Z,97335.38
2023-04-17T01:29:50.150Z,97336.19
2023-04-17T01:32:35.463Z,97338.34
2023-04-17T01:35:20.689Z,97334.81
2023-04-17T01:38:05.835Z,97333.47
2023-04-17T01:40:52.444Z,97333.75
2023-04-17T01:43:37.635Z,97330.25
2023-04-17T01:46:23.029Z,97329.13
2023-04-17T01:49:08.361Z,97335.38
2023-04-17T01:51:53.801Z,97332.41
2023-04-17T01:54:39.211Z,97336.41
2023-04-17T01:57:24.685Z,97337.22
2023-04-17T02:00:10.042Z,97337.25
2023-04-17T02:02:55.481Z,97336.22
2023-04-17T02:05:40.796Z,97339.47
2023-04-17T02:08:26.118Z,97343.19
2023-04-17T02:11:11.643Z,97341.09
2023-04-17T02:13:56.903Z,97337.78
2023-04-17T02:16:42.438Z,97336.09
2023-04-17T02:19:27.592Z,97339.72
2023-04-17T02:22:12.947Z,97331.84
2023-04-17T02:24:58.360Z,97339.41
2023-04-17T02:27:43.817Z,97342.13
2023-04-17T02:30:29.430Z,97343.75
2023-04-17T02:33:14.484Z,97341.03
2023-04-17T02:35:59.855Z,97338.59
2023-04-17T02:38:45.102Z,97346.13
2023-04-17T02:41:30.385Z,97348.69
2023-04-17T02:44:15.858Z,97348.09
2023-04-17T02:47:01.200Z,97348.41
2023-04-17T02:49:46.531Z,97348.88
2023-04-17T02:52:31.833Z,97344.53
2023-04-17T02:55:17.263Z,97344.84
2023-04-17T02:58:02.600Z,97338.91
2023-04-17T03:00:47.949Z,97333.41
2023-04-17T03:03:33.597Z,97334.25
2023-04-17T03:06:18.674Z,97327.16
2023-04-17T03:09:04.051Z,97335.28
2023-04-17T03:11:49.394Z,97334.75
2023-04-17T03:14:34.782Z,97324.75
2023-04-17T03:17:20.462Z,97325.53
2023-04-17T03:20:05.773Z,97328.50
2023-04-17T03:22:51.134Z,97322.28
2023-04-17T03:25:36.350Z,97322.84
2023-04-17T03:28:21.910Z,97318.78
2023-04-17T03:31:07.234Z,97320.94
2023-04-17T03:33:52.710Z,97313.88
2023-04-17T03:36:38.012Z,97313.06
2023-04-17T03:39:22.947Z,97321.69
2023-04-17T03:42:08.433Z,97322.03
2023-04-17T03:44:53.809Z,97320.38
2023-04-17T03:47:39.314Z,97324.97
2023-04-17T03:50:24.810Z,97326.38
2023-04-17T03:53:10.164Z,97317.41
2023-04-17T03:55:55.675Z,97314.97
2023-04-17T03:58:40.681Z,97325.03
2023-04-17T04:01:26.097Z,97316.06
2023-04-17T04:04:11.723Z,97315.31
2023-04-17T04:06:57.037Z,97311.47
2023-04-17T04:09:42.386Z,97316.56
2023-04-17T04:12:27.597Z,97319.31
2023-04-17T04:15:13.114Z,97322.06
2023-04-17T04:17:58.539Z,97318.00
2023-04-17T04:20:44.039Z,97318.50
2023-04-17T04:23:29.431Z,97307.66
2023-04-17T04:26:14.718Z,97308.22
2023-04-17T04:29:00.092Z,97305.47
2023-04-17T04:31:45.423Z,97316.59
2023-04-17T04:34:30.718Z,97318.53
2023-04-17T04:37:16.182Z,97317.38
2023-04-17T04:40:01.467Z,97323.63
2023-04-17T04:42:46.986Z,97327.75
2023-04-17T04:45:32.234Z,97319.06
2023-04-17T04:48:17.725Z,97319.38
2023-04-17T04:51:02.965Z,97326.94
2023-04-17T04:53:48.252Z,97330.00
2023-04-17T04:56:33.327Z,97328.31
2023-04-17T04:59:18.582Z,97330.59
2023-04-17T05:02:04.219Z,97327.53
2023-04-17T05:04:49.618Z,97330.22
2023-04-17T05:07:34.724Z,97324.28
2023-04-17T05:10:19.916Z,97341.38
2023-04-17T05:13:05.451Z,97327.22
2023-04-17T05:15:50.800Z,97336.22
2023-04-17T05:18:36.002Z,97331.06
2023-04-17T05:21:21.459Z,97332.72
2023-04-17T05:24:07.060Z,97323.19
2023-04-17T05:26:52.038Z,97325.06
2023-04-17T05:29:37.401Z,97323.16
2023-04-17T05:32:22.659Z,97315.03
2023-04-17T05:35:08.023Z,97311.22
2023-04-17T05:37:53.293Z,97327.63
2023-04-17T05:40:38.597Z,97326.44
2023-04-17T05:43:24.190Z,97314.81
2023-04-17T05:46:09.587Z,97308.34
2023-04-17T05:48:55.123Z,97317.19
2023-04-17T05:51:40.336Z,97319.66
2023-04-17T05:54:25.337Z,97323.44
2023-04-17T05:57:10.605Z,97323.94
2023-04-17T05:59:56.010Z,97330.72
2023-04-17T06:02:41.535Z,97327.50
2023-04-17T06:05:26.908Z,97321.63
2023-04-17T06:08:12.303Z,97320.84
2023-04-17T06:10:57.511Z,97322.78
2023-04-17T06:13:42.868Z,97324.28
2023-04-17T06:16:28.052Z,97319.06
2023-04-17T06:19:13.266Z,97328.31
2023-04-17T06:21:58.551Z,97324.06
2023-04-17T06:24:43.819Z,97328.34
2023-04-17T06:27:29.105Z,97329.50
2023-04-17T06:30:14.513Z,97325.41
2023-04-17T06:32:59.783Z,97331.84
2023-04-17T06:35:45.129Z,97324.56
2023-04-17T06:38:30.475Z,97334.06
2023-04-17T06:41:16.061Z,97333.50
2023-04-17T06:44:01.364Z,97324.63
2023-04-17T06:46:46.914Z,97326.44
2023-04-17T06:49:32.101Z,97324.34
2023-04-17T06:52:17.587Z,97324.78
2023-04-17T06:55:02.909Z,97329.53
2023-04-17T06:57:48.280Z,97326.00
2023-04-17T07:00:33.613Z,97328.41
2023-04-17T07:03:19.119Z,97325.47
2023-04-17T07:06:04.259Z,97323.78
2023-04-17T07:08:49.576Z,97318.09
2023-04-17T07:11:34.863Z,97330.25
2023-04-17T07:14:20.319Z,97334.38
2023-04-17T07:17:05.607Z,97319.66
2023-04-17T07:19:51.074Z,97327.53
2023-04-17T07:22:36.286Z,97327.81
2023-04-17T07:25:21.614Z,97327.28
2023-04-17T07:28:07.065Z,97325.97
2023-04-17T07:30:52.332Z,97315.88
2023-04-17T07:33:40.196Z,97322.44
2023-04-17T07:36:25.717Z,97315.88
2023-04-17T07:39:11.214Z,97310.44
2023-04-17T07:41:56.445Z,97308.84
2023-04-17T07:44:43.560Z,97317.03
2023-04-17T07:47:28.760Z,97304.81
2023-04-17T07:50:14.200Z,97307.53
2023-04-17T07:52:59.535Z,97314.31
2023-04-17T07:55:45.094Z,97311.84
2023-04-17T07:58:30.342Z,97317.84
2023-04-17T08:01:15.577Z,97312.72
2023-04-17T08:04:00.995Z,97312.72
2023-04-17T08:06:46.570Z,97306.19
2023-04-17T08:09:31.935Z,97304.28
2023-04-17T08:12:17.245Z,97312.69
2023-04-17T08:15:02.788Z,97304.53
2023-04-17T08:17:48.057Z,97316.19
2023-04-17T08:20:33.225Z,97305.63
2023-04-17T08:23:18.752Z,97311.06
2023-04-17T08:26:04.082Z,97311.59
2023-04-17T08:28:49.380Z,97307.22
2023-04-17T08:31:34.741Z,97302.34
2023-04-17T08:34:19.965Z,97308.03
2023-04-17T08:37:05.407Z,97298.81
2023-04-17T08:39:50.751Z,97307.22
2023-04-17T08:42:36.099Z,97308.88
2023-04-17T08:45:21.303Z,97299.91
2023-04-17T08:48:06.731Z,97298.81
2023-04-17T08:50:51.952Z,97290.66
2023-04-17T08:53:37.386Z,97295.81
2023-04-17T08:56:22.803Z,97290.94
2023-04-17T08:59:08.162Z,97284.44
2023-04-17T09:01:53.610Z,97290.66
2023-04-17T09:04:38.985Z,97273.00
2023-04-17T09:07:24.100Z,97275.19
2023-04-17T09:10:09.663Z,97287.94
2023-04-17T09:12:54.930Z,97276.25
2023-04-17T09:15:40.470Z,97273.25
2023-04-17T09:18:25.678Z,97275.72
2023-04-17T09:21:10.954Z,97279.47
2023-04-17T09:23:56.360Z,97278.69
2023-04-17T09:26:41.607Z,97283.06
2023-04-17T09:29:27.136Z,97279.81
2023-04-17T09:32:12.394Z,97276.78
2023-04-17T09:34:57.284Z,97283.59
2023-04-17T09:37:42.724Z,97279.28
2023-04-17T09:40:28.046Z,97275.47
2023-04-17T09:43:13.299Z,97278.47
2023-04-17T09:45:58.398Z,97274.94
2023-04-17T09:48:43.786Z,97281.72
2023-04-17T09:51:29.058Z,97273.56
2023-04-17T09:54:14.429Z,97277.38
2023-04-17T09:56:59.667Z,97278.19
2023-04-17T09:59:44.966Z,97284.41
2023-04-17T10:02:30.615Z,97272.75
2023-04-17T10:05:15.929Z,97279.00
2023-04-17T10:08:01.268Z,97272.75
2023-04-17T10:10:46.548Z,97254.00
2023-04-17T10:13:32.021Z,97268.94
2023-04-17T10:16:17.247Z,97250.72
2023-04-17T10:19:02.709Z,97257.53
2023-04-17T10:21:50.553Z,97248.56
2023-04-17T10:24:36.026Z,97247.72
2023-04-17T10:27:21.209Z,97241.75
2023-04-17T10:30:06.619Z,97236.88
2023-04-17T10:32:51.910Z,97238.75
2023-04-17T10:35:37.275Z,97259.69
2023-04-17T10:38:22.538Z,97249.38
2023-04-17T10:41:07.935Z,97252.63
2023-04-17T10:43:53.199Z,97259.97
2023-04-17T10:46:38.560Z,97242.03
2023-04-17T10:49:23.898Z,97245.03
2023-04-17T10:52:09.246Z,97249.09
2023-04-17T10:54:54.364Z,97249.09
2023-04-17T10:57:40.542Z,97232.25
2023-04-17T11:00:26.794Z,97243.38
2023-04-17T11:03:12.580Z,97238.22
2023-04-17T11:06:02.098Z,97238.50
2023-04-17T11:08:48.063Z,97244.75
2023-04-17T11:11:43.648Z,97240.94
2023-04-17T11:14:29.169Z,97236.59
2023-04-17T11:17:16.184Z,97239.84
2023-04-17T11:20:03.130Z,97217.03
2023-04-17T11:22:53.342Z,97233.34
2023-04-17T11:25:39.617Z,97225.19
2023-04-17T11:28:35.135Z,97221.91
2023-04-17T11:31:23.675Z,97217.56
2023-04-17T11:34:08.910Z,97224.38
2023-04-17T11:36:56.285Z,97215.97
2023-04-17T11:39:42.596Z,97216.50
2023-04-17T11:42:31.787Z,97222.50
2023-04-17T11:45:17.761Z,97212.94
2023-04-17T11:48:03.456Z,97228.16
2023-04-17T11:50:49.004Z,97216.75
2023-04-17T11:53:34.566Z,97202.09
2023-04-17T11:56:19.838Z,97224.66
2023-04-17T11:59:04.805Z,97219.50
2023-04-17T12:01:50.328Z,97222.50
2023-04-17T12:04:38.171Z,97216.50
2023-04-17T12:07:24.761Z,97213.47
2023-04-17T12:10:13.168Z,97211.34
2023-04-17T12:12:58.318Z,97205.56
2023-04-17T12:15:43.683Z,97199.31
2023-04-17T12:18:29.189Z,97209.94
2023-04-17T12:21:14.249Z,97195.84
2023-04-17T12:23:59.476Z,97195.84
2023-04-17T12:26:44.620Z,97193.94
2023-04-17T12:29:43.252Z,97195.81
2023-04-17T12:32:29.862Z,97196.66
2023-04-17T12:35:15.196Z,97192.03
2023-04-17T12:38:00.561Z,97189.03
2023-04-17T12:40:45.983Z,97187.41
2023-04-17T12:43:31.458Z,97181.94
2023-04-17T12:46:16.494Z,97183.59
2023-04-17T12:49:02.465Z,97179.53
2023-04-17T12:51:47.848Z,97184.69
2023-04-17T12:54:35.506Z,97171.66
2023-04-17T12:57:21.148Z,97169.75
2023-04-17T13:00:06.489Z,97166.75
2023-04-17T13:02:52.104Z,97158.59
2023-04-17T13:05:37.211Z,97175.69
2023-04-17T13:08:22.483Z,97164.78
2023-04-17T13:11:08.602Z,97165.41
2023-04-17T13:13:54.299Z,97172.44
2023-04-17T13:16:42.729Z,97161.28
2023-04-17T13:19:28.806Z,97157.47
2023-04-17T13:22:14.266Z,97155.56
2023-04-17T13:24:59.661Z,97163.47
2023-04-17T13:27:45.094Z,97156.13
2023-04-17T13:30:30.349Z,97148.72
2023-04-17T13:33:15.727Z,97153.91
2023-04-17T13:36:01.050Z,97161.25
2023-04-17T13:38:46.328Z,97152.53
2023-04-17T13:41:31.779Z,97147.03
2023-04-17T13:44:16.957Z,97146.47
2023-04-17T13:47:02.599Z,97154.97
2023-04-17T13:49:47.790Z,97136.75
2023-04-17T13:52:33.209Z,97132.41
2023-04-17T13:55:18.460Z,97125.31
2023-04-17T13:58:03.761Z,97130.41
2023-04-17T14:00:49.116Z,97136.13
2023-04-17T14:03:36.246Z,97122.59
2023-04-17T14:06:22.724Z,97129.38
2023-04-17T14:09:08.016Z,97118.25
2023-04-17T14:11:53.330Z,97125.81
2023-04-17T14:14:38.769Z,97117.06
2023-04-17T14:17:24.016Z,97127.38
2023-04-17T14:20:09.454Z,97124.09
2023-04-17T14:22:54.879Z,97103.94
2023-04-17T14:25:39.862Z,97109.50
2023-04-17T14:28:25.377Z,97112.88
2023-04-17T14:31:10.778Z,97106.59
2023-04-17T14:33:56.373Z,97118.31
2023-04-17T14:36:43.423Z,97106.38
2023-04-17T14:39:30.861Z,97100.09
2023-04-17T14:42:16.495Z,97105.75
2023-04-17T14:45:01.877Z,97116.84
2023-04-17T14:47:47.204Z,97102.84
2023-04-17T14:50:32.710Z,97099.22
2023-04-17T14:53:19.466Z,97090.59
2023-04-17T14:56:06.352Z,97104.84
2023-04-17T14:58:51.686Z,97087.38
2023-04-17T15:01:37.079Z,97087.16
2023-04-17T15:04:22.606Z,97097.56
2023-04-17T15:07:07.876Z,97089.34
2023-04-17T15:09:54.261Z,97082.91
2023-04-17T15:12:41.133Z,97080.50
2023-04-17T15:15:26.254Z,97072.16
2023-04-17T15:18:11.738Z,97085.75
2023-04-17T15:20:56.754Z,97072.84
2023-04-17T15:23:42.100Z,97081.75
2023-04-17T15:26:27.565Z,97072.41
2023-04-17T15:29:12.949Z,97080.53
2023-04-17T15:31:58.290Z,97074.34
2023-04-17T15:34:44.288Z,97062.13
2023-04-17T15:37:44.270Z,97067.31
2023-04-17T15:40:29.865Z,97058.38
2023-04-17T15:43:22.769Z,97058.50
2023-04-17T15:46:08.282Z,97057.53
2023-04-17T15:49:07.516Z,97061.31
2023-04-17T15:51:53.596Z,97061.06
2023-04-17T15:54:39.085Z,97062.69
2023-04-17T15:57:24.687Z,97059.66
2023-04-17T16:00:10.142Z,97063.94
2023-04-17T16:02:55.539Z,97062.53
2023-04-17T16:05:40.732Z,97061.41
2023-04-17T16:08:26.293Z,97059.47
2023-04-17T16:11:11.601Z,97058.59
2023-04-17T16:13:59.678Z,97046.84
2023-04-17T16:16:45.033Z,97047.06
2023-04-17T16:19:30.278Z,97049.66
2023-04-17T16:22:15.281Z,97050.81
2023-04-17T16:25:00.586Z,97045.09
2023-04-17T16:27:45.946Z,97055.13
2023-04-17T16:30:31.275Z,97056.56
2023-04-17T16:33:16.573Z,97051.47
2023-04-17T16:36:01.817Z,97061.03
2023-04-17T16:38:47.199Z,97042.94
2023-04-17T16:41:32.509Z,97045.41
2023-04-17T16:44:18.093Z,97047.66
2023-04-17T16:49:51.265Z,97039.13
2023-04-17T16:52:36.665Z,97046.09
2023-04-17T16:55:21.862Z,97049.13
2023-04-17T16:58:07.158Z,97050.03
2023-04-17T17:00:52.228Z,97040.19
2023-04-17T17:03:37.839Z,97051.63
2023-04-17T17:06:22.916Z,97040.09
2023-04-17T17:09:08.362Z,97049.81
2023-04-17T17:11:53.750Z,97044.88
2023-04-17T17:14:39.014Z,97049.53
2023-04-17T17:17:24.183Z,97047.84
2023-04-17T17:20:09.527Z,97051.38
2023-04-17T17:22:57.203Z,97049.78
2023-04-17T17:25:42.611Z,97045.56
2023-04-17T17:28:27.893Z,97048.34
2023-04-17T17:31:13.277Z,97044.53
2023-04-17T17:33:59.896Z,97042.88
2023-04-17T17:36:46.414Z,97044.88
2023-04-17T17:39:31.429Z,97041.34
2023-04-17T17:42:16.672Z,97051.34
2023-04-17T17:45:02.161Z,97044.00
2023-04-17T17:47:47.251Z,97047.38
2023-04-17T17:50:32.726Z,97050.25
2023-04-17T17:53:18.600Z,97055.66
2023-04-17T17:56:06.404Z,97046.78
2023-04-17T17:58:51.840Z,97046.50
2023-04-17T18:01:37.233Z,97047.72
2023-04-17T18:04:22.923Z,97055.25
2023-04-17T18:07:08.126Z,97054.72
2023-04-17T18:09:53.198Z,97054.97
2023-04-17T18:12:38.772Z,97062.38
2023-04-17T18:15:24.140Z,97062.53
2023-04-17T18:18:09.560Z,97051.56
2023-04-17T18:20:55.039Z,97053.88
2023-04-17T18:23:40.338Z,97062.44
2023-04-17T18:26:25.759Z,97066.00
2023-04-17T18:29:11.079Z,97062.81
2023-04-17T18:31:56.526Z,97063.03
2023-04-17T18:34:42.084Z,97060.66
2023-04-17T18:37:27.378Z,97070.41
2023-04-17T18:40:12.776Z,97062.25
2023-04-17T18:42:58.104Z,97058.91
2023-04-17T18:45:43.521Z,97066.59
2023-04-17T18:48:28.980Z,97064.94
2023-04-17T18:51:14.239Z,97069.56
2023-04-17T18:54:00.419Z,97071.66
2023-04-17T18:56:45.405Z,97070.13
2023-04-17T18:59:30.866Z,97082.03
2023-04-17T19:02:16.273Z,97084.53
2023-04-17T19:05:01.665Z,97086.16
2023-04-17T19:07:47.008Z,97087.56
2023-04-17T19:10:32.298Z,97084.28
2023-04-17T19:13:17.523Z,97088.34
2023-04-17T19:16:03.009Z,97093.84
2023-04-17T19:18:48.349Z,97080.22
2023-04-17T19:21:34.039Z,97080.22
2023-04-17T19:24:19.249Z,97079.97
2023-04-17T19:27:04.689Z,97080.97
2023-04-17T19:29:49.994Z,97095.19
2023-04-17T19:32:35.338Z,97084.63
2023-04-17T19:35:20.453Z,97091.09
2023-04-17T19:38:06.184Z,97083.22
2023-04-17T19:40:51.681Z,97088.94
2023-04-17T19:43:37.508Z,97101.50
2023-04-17T19:46:23.326Z,97101.22
2023-04-17T19:49:08.715Z,97088.66
2023-04-17T19:51:53.894Z,97092.25
2023-04-17T19:54:39.021Z,97094.41
2023-04-17T19:57:24.360Z,97095.22
2023-04-17T20:00:09.885Z,97099.56
2023-04-17T20:02:55.483Z,97093.03
2023-04-17T20:05:41.275Z,97097.06
2023-04-17T20:08:26.792Z,97096.03
2023-04-17T20:11:12.410Z,97085.09
2023-04-17T20:13:58.000Z,97090.28
2023-04-17T20:16:43.417Z,97095.75
2023-04-17T20:19:28.606Z,97086.25
2023-04-17T20:22:14.206Z,97095.28
2023-04-17T20:24:59.651Z,97094.16
2023-04-17T20:27:46.174Z,97090.88
2023-04-17T20:30:31.420Z,97092.00
2023-04-17T20:33:16.911Z,97089.00
2023-04-17T20:36:02.142Z,97099.91
2023-04-17T20:38:47.349Z,97090.06
2023-04-17T20:41:34.000Z,97081.38
2023-04-17T20:44:19.216Z,97089.00
2023-04-17T20:47:04.706Z,97077.03
2023-04-17T20:49:50.220Z,97084.63
2023-04-17T20:52:35.678Z,97091.44
2023-04-17T20:55:21.188Z,97089.31
2023-04-17T20:58:06.521Z,97092.28
2023-04-17T21:01:00.720Z,97080.56
2023-04-17T21:03:47.106Z,97083.81
2023-04-17T21:06:32.559Z,97085.22
2023-04-17T21:09:17.769Z,97084.59
2023-04-17T21:12:03.160Z,97084.66
2023-04-17T21:14:48.507Z,97089.31
2023-04-17T21:17:33.856Z,97078.41
2023-04-17T21:20:19.496Z,97093.38
2023-04-17T21:23:04.824Z,97082.97
2023-04-17T21:25:50.273Z,97091.16
2023-04-17T21:28:35.667Z,97098.78
2023-04-17T21:31:20.868Z,97093.28
2023-04-17T21:34:06.349Z,97085.69
2023-04-17T21:36:51.391Z,97092.25
2023-04-17T21:39:36.920Z,97094.44
2023-04-17T21:42:22.228Z,97099.06
2023-04-17T21:45:07.526Z,97087.88
2023-04-17T21:47:52.783Z,97099.03
2023-04-17T21:50:38.115Z,97099.56
2023-04-17T21:53:23.575Z,97097.72
2023-04-17T21:56:08.933Z,97100.97
2023-04-17T21:58:54.364Z,97103.66
2023-04-17T22:01:39.822Z,97106.91
2023-04-17T22:04:28.399Z,97108.03
2023-04-17T22:07:13.560Z,97100.41
2023-04-17T22:09:58.902Z,97099.31
2023-04-17T22:12:44.180Z,97093.59
2023-04-17T22:15:29.605Z,97094.16
2023-04-17T22:18:15.036Z,97105.81
2023-04-17T22:21:00.544Z,97105.25
2023-04-17T22:23:45.960Z,97099.03
2023-04-17T22:26:31.367Z,97104.75
2023-04-17T22:29:16.747Z,97106.13
2023-04-17T22:32:02.125Z,97105.34
2023-04-17T22:34:47.492Z,97097.13
2023-04-17T22:37:32.988Z,97106.66
2023-04-17T22:40:18.284Z,97101.00
2023-04-17T22:43:06.019Z,97105.84
2023-04-17T22:45:51.200Z,97099.63
2023-04-17T22:48:36.575Z,97097.69
2023-04-17T22:51:21.968Z,97088.72
2023-04-17T22:54:19.116Z,97098.47
2023-04-17T22:57:05.177Z,97098.03
2023-04-17T22:59:50.635Z,97111.59
2023-04-17T23:02:36.070Z,97108.63
2023-04-17T23:05:21.458Z,97102.34
2023-04-17T23:08:06.936Z,97101.53
2023-04-17T23:10:52.315Z,97109.94
2023-04-17T23:13:37.659Z,97099.09
2023-04-17T23:16:23.059Z,97100.19
2023-04-17T23:19:08.369Z,97102.66
2023-04-17T23:21:53.698Z,97103.47
2023-04-17T23:24:39.351Z,97106.97
2023-04-17T23:27:24.908Z,97105.88
2023-04-17T23:30:10.343Z,97102.31
2023-04-17T23:32:55.826Z,97107.50
2023-04-17T23:35:41.043Z,97106.97
2023-04-17T23:38:26.247Z,97107.78
2023-04-17T23:41:11.610Z,97109.16
2023-04-17T23:43:57.029Z,97113.50
2023-04-17T23:46:42.395Z,97108.06
2023-04-17T23:49:27.699Z,97122.47
2023-04-17T23:52:13.170Z,97114.84
2023-04-17T23:54:58.750Z,97115.13
2023-04-17T23:57:44.063Z,97123.28
